EST,Max TemperatureF,Mean TemperatureF,Min TemperatureF,Max Dew PointF,MeanDew PointF,Min DewpointF,Max Humidity, Mean Humidity, Min Humidity, Max Sea Level PressureIn, Mean Sea Level PressureIn, Min Sea Level PressureIn, Max VisibilityMiles, Mean VisibilityMiles, Min VisibilityMiles, Max Wind SpeedMPH, Mean Wind SpeedMPH, Max Gust SpeedMPH,PrecipitationIn, CloudCover, Events, WindDirDegrees
2011-11-1,53,42,30,37,29,23,85,57,28,30.37,30.34,30.05,10,10,10,8,3,,0.00,3,,25
2011-11-2,52,39,25,33,30,24,92,70,48,30.43,30.34,30.25,10,9,7,7,1,8,0.00,1,,142
2011-11-3,58,44,30,40,35,28,92,70,47,30.23,30.05,29.92,10,9,5,14,4,17,0.00,4,,188
2011-11-4,52,43,33,39,28,19,92,60,28,30.27,30.06,29.89,10,10,8,23,9,31,0.00,2,,357
2011-11-5,50,38,26,24,21,16,78,51,24,30.48,30.41,30.29,10,10,10,16,3,20,0.00,0,,352
2011-11-6,56,40,23,34,27,19,88,58,27,30.53,30.45,30.36,10,10,6,15,5,18,0.00,0,,188
2011-11-7,64,48,31,40,35,28,96,65,34,30.34,30.27,30.20,10,10,6,12,4,14,0.00,1,,197
2011-11-8,69,53,37,47,43,35,92,68,44,30.28,30.23,30.18,10,10,8,8,1,10,0.00,1,,173
2011-11-9,69,55,40,51,43,33,93,60,27,30.22,30.15,30.03,10,7,1,17,5,21,0.00,2,,188
2011-11-10,60,54,47,57,53,40,100,87,74,30.01,29.76,29.58,10,6,2,14,4,20,0.43,7,Rain,341
2011-11-11,49,43,37,40,33,26,89,66,42,29.92,29.65,29.51,10,10,9,29,12,37,0.01,5,Rain,295
2011-11-12,54,45,35,31,28,24,75,54,32,30.11,30.04,29.94,10,10,10,20,9,29,0.00,2,,198
2011-11-13,62,48,34,43,38,30,85,66,46,30.15,30.05,29.94,10,10,10,24,8,30,0.00,7,,182
2011-11-14,67,57,47,52,44,38,86,64,42,29.93,29.83,29.70,10,10,10,15,9,21,T,6,,177
2011-11-15,65,59,52,52,50,45,83,66,48,29.94,29.82,29.67,10,10,10,22,6,28,T,8,Rain,213
2011-11-16,58,52,46,54,51,45,100,90,80,29.94,29.81,29.71,10,6,1,8,2,9,0.67,7,Rain,257
2011-11-17,52,43,34,49,31,23,89,69,49,29.97,29.83,29.74,10,10,10,26,9,36,0.03,7,Rain,317
2011-11-18,45,38,30,23,21,19,72,55,37,30.40,30.26,29.99,10,10,10,23,9,29,0.00,1,,275
2011-11-19,53,43,32,37,24,17,79,53,26,30.39,30.32,30.22,10,10,10,23,10,30,0.00,5,,179
2011-11-20,67,55,42,46,42,39,82,62,42,30.21,30.08,30.00,10,10,10,16,8,23,0.00,5,,208
2011-11-21,55,45,34,42,31,24,69,54,39,30.36,30.26,30.11,10,10,10,16,7,21,0.00,5,,3
2011-11-22,45,38,31,39,31,26,100,79,57,30.41,30.32,30.12,10,9,3,8,2,10,0.39,8,Rain,10
2011-11-23,40,38,35,39,36,32,100,91,82,30.04,29.79,29.62,10,8,3,22,12,28,1.33,8,Rain,356
2011-11-24,48,38,27,33,30,26,92,73,53,30.16,30.12,29.99,10,10,9,14,2,17,0.00,1,,341
2011-11-25,61,44,27,38,33,25,100,71,42,30.14,30.09,30.04,10,10,9,12,4,14,0.00,2,,181
2011-11-26,64,48,32,37,35,31,89,62,34,30.19,30.15,30.08,10,10,10,10,3,13,0.00,4,,178
2011-11-27,55,42,29,49,40,30,100,86,71,30.19,30.15,30.10,10,10,8,16,3,21,0.00,4,,175
2011-11-28,65,58,51,52,50,48,89,73,56,30.14,30.10,30.08,10,10,10,16,9,22,0.00,5,,183
2011-11-29,66,57,48,61,54,48,100,84,68,30.10,29.90,29.62,10,7,2,20,6,26,0.94,8,Rain,143
2011-11-30,61,51,40,57,40,29,97,72,46,29.89,29.68,29.60,10,10,5,22,12,30,0.01,6,Rain,218